createdAt,value
2023-02-05T00:00:38.191Z,101022.06
2023-02-05T00:03:06.755Z,101021.88
2023-02-05T00:05:35.557Z,101018.13
2023-02-05T00:08:04.218Z,101020.84
2023-02-05T00:10:32.663Z,101018.13
2023-02-05T00:13:01.154Z,101026.97
2023-02-05T00:15:29.904Z,101031.53
2023-02-05T00:17:59.742Z,101027.63
2023-02-05T00:20:28.678Z,101028.47
2023-02-05T00:22:57.873Z,101024.53
2023-02-05T00:25:26.303Z,101029.81
2023-02-05T00:27:54.744Z,101037.78
2023-02-05T00:30:23.378Z,101029.63
2023-02-05T00:32:51.854Z,101039.28
2023-02-05T00:35:21.776Z,101043.53
2023-02-05T00:37:50.212Z,101039.59
2023-02-05T00:40:19.352Z,101046.56
2023-02-05T00:42:47.764Z,101040.94
2023-02-05T00:45:19.303Z,101048.06
2023-02-05T00:47:52.334Z,101057.91
2023-02-05T00:50:22.174Z,101065.03
2023-02-05T00:52:50.612Z,101053.97
2023-02-05T00:55:19.289Z,101065.91
2023-02-05T00:57:47.723Z,101056.03
2023-02-05T01:00:17.685Z,101066.06
2023-02-05T01:02:46.279Z,101062.66
2023-02-05T01:05:14.818Z,101068.97
2023-02-05T01:07:44.624Z,101067.25
2023-02-05T01:10:13.555Z,101073.53
2023-02-05T01:12:42.012Z,101070.16
2023-02-05T01:15:14.213Z,101071.34
2023-02-05T01:17:43.009Z,101068.97
2023-02-05T01:20:14.497Z,101080.91
2023-02-05T01:22:44.804Z,101092.09
2023-02-05T01:25:13.457Z,101095.16
2023-02-05T01:27:41.920Z,101087.41
2023-02-05T01:30:12.632Z,101085.88
2023-02-05T01:32:41.732Z,101073.69
2023-02-05T01:35:11.188Z,101085.75
2023-02-05T01:37:39.664Z,101078.78
2023-02-05T01:40:14.902Z,101081.66
2023-02-05T01:42:43.829Z,101088.13
2023-02-05T01:46:16.032Z,101095.75
2023-02-05T01:48:48.156Z,101099.53
2023-02-05T01:51:17.756Z,101092.22
2023-02-05T01:53:49.509Z,101089.50
2023-02-05T01:56:24.141Z,101098.66
2023-02-05T01:58:59.658Z,101089.84
2023-02-05T02:01:28.968Z,101089.00
2023-02-05T02:04:04.537Z,101084.75
2023-02-05T02:06:36.402Z,101094.28
2023-02-05T02:09:07.244Z,101094.81
2023-02-05T02:11:42.916Z,101089.25
2023-02-05T02:14:13.197Z,101081.78
2023-02-05T02:16:42.658Z,101094.19
2023-02-05T02:19:21.099Z,101108.63
2023-02-05T02:22:26.898Z,101118.66
2023-02-05T02:25:38.198Z,101106.97
2023-02-05T02:28:12.179Z,101117.47
2023-02-05T02:30:45.178Z,101121.53
2023-02-05T02:33:21.564Z,101122.91
2023-02-05T02:35:57.835Z,101119.69
2023-02-05T02:38:33.493Z,101116.47
2023-02-05T02:41:08.847Z,101142.03
2023-02-05T02:43:49.338Z,101130.72
2023-02-05T02:46:23.288Z,101140.88
2023-02-05T02:48:57.315Z,101124.25
2023-02-05T02:51:28.723Z,101143.06
2023-02-05T02:54:01.708Z,101149.66
2023-02-05T02:56:33.833Z,101143.75
2023-02-05T02:59:09.650Z,101147.47
2023-02-05T03:01:46.918Z,101140.69
2023-02-05T03:04:23.590Z,101142.72
2023-02-05T03:06:55.661Z,101143.06
2023-02-05T03:09:31.288Z,101142.38
2023-02-05T03:11:59.978Z,101143.41
2023-02-05T03:14:29.897Z,101141.88
2023-02-05T03:16:58.718Z,101142.88
2023-02-05T03:19:27.474Z,101133.06
2023-02-05T03:22:00.613Z,101139.50
2023-02-05T03:24:29.238Z,101137.97
2023-02-05T03:26:57.646Z,101135.25
2023-02-05T03:29:31.959Z,101139.13
2023-02-05T03:32:11.445Z,101140.16
2023-02-05T03:34:53.398Z,101142.34
2023-02-05T03:37:34.024Z,101136.06
2023-02-05T03:40:14.815Z,101139.97
2023-02-05T03:42:55.890Z,101144.72
2023-02-05T03:45:46.719Z,101145.06
2023-02-05T03:48:36.916Z,101152.34
2023-02-05T03:51:33.739Z,101154.50
2023-02-05T03:54:10.687Z,101151.13
2023-02-05T03:56:50.676Z,101151.47
2023-02-05T03:59:20.710Z,101156.72
2023-02-05T04:01:51.130Z,101156.91
2023-02-05T04:04:19.711Z,101144.34
2023-02-05T04:06:50.607Z,101141.63
2023-02-05T04:09:19.049Z,101146.38
2023-02-05T04:11:47.638Z,101139.25
2023-02-05T04:14:16.506Z,101141.28
2023-02-05T04:16:45.047Z,101143.13
2023-02-05T04:19:14.890Z,101141.44
2023-02-05T04:21:43.337Z,101144.16
2023-02-05T04:24:11.954Z,101151.63
2023-02-05T04:26:40.407Z,101147.19
2023-02-05T04:29:08.909Z,101130.25
2023-02-05T04:31:37.628Z,101136.72
2023-02-05T04:34:06.165Z,101127.88
2023-02-05T04:36:35.994Z,101127.03
2023-02-05T04:39:04.808Z,101125.50
2023-02-05T04:41:33.319Z,101151.75
2023-02-05T04:44:01.812Z,101153.59
2023-02-05T04:46:30.404Z,101160.03
2023-02-05T04:48:58.857Z,101162.75
2023-02-05T04:51:27.270Z,101163.75
2023-02-05T04:53:57.063Z,101157.66
2023-02-05T04:56:25.527Z,101164.91
2023-02-05T04:58:53.959Z,101165.09
2023-02-05T05:01:24.411Z,101159.69
2023-02-05T05:03:53.287Z,101160.53
2023-02-05T05:06:22.111Z,101158.81
2023-02-05T05:08:50.469Z,101151.69
2023-02-05T05:11:21.352Z,101154.56
2023-02-05T05:13:51.985Z,101160.00
2023-02-05T05:16:20.907Z,101154.56
2023-02-05T05:18:52.005Z,101160.84
2023-02-05T05:21:20.466Z,101151.00
2023-02-05T05:23:48.868Z,101156.44
2023-02-05T05:26:17.452Z,101156.59
2023-02-05T05:28:47.264Z,101165.59
2023-02-05T05:31:19.593Z,101162.03
2023-02-05T05:33:48.718Z,101159.63
2023-02-05T05:36:18.352Z,101153.34
2023-02-05T05:38:46.815Z,101155.25
2023-02-05T05:41:39.439Z,101151.00
2023-02-05T05:44:10.177Z,101143.88
2023-02-05T05:46:38.837Z,101144.91
2023-02-05T05:49:07.257Z,101152.16
2023-02-05T05:51:35.699Z,101154.88
2023-02-05T05:54:04.184Z,101156.72
2023-02-05T05:56:32.668Z,101160.47
2023-02-05T05:59:01.067Z,101156.91
2023-02-05T06:01:30.994Z,101170.28
2023-02-05T06:03:59.394Z,101172.13
2023-02-05T06:06:27.840Z,101159.59
2023-02-05T06:08:56.224Z,101161.47
2023-02-05T06:11:24.666Z,101163.16
2023-02-05T06:13:53.072Z,101155.06
2023-02-05T06:16:22.664Z,101164.84
2023-02-05T06:18:52.501Z,101152.34
2023-02-05T06:21:20.941Z,101161.28
2023-02-05T06:23:49.356Z,101163.00
2023-02-05T06:26:17.812Z,101169.28
2023-02-05T06:28:46.213Z,101163.84
2023-02-05T06:31:14.790Z,101170.09
2023-02-05T06:33:43.310Z,101168.09
2023-02-05T06:36:13.159Z,101160.81
2023-02-05T06:38:41.542Z,101169.78
2023-02-05T06:41:09.937Z,101171.50
2023-02-05T06:43:38.459Z,101176.91
2023-02-05T06:46:06.988Z,101174.19
2023-02-05T06:48:35.399Z,101172.31
2023-02-05T06:51:03.776Z,101173.03
2023-02-05T06:53:33.589Z,101172.84
2023-02-05T06:56:02.038Z,101180.97
2023-02-05T06:58:30.453Z,101181.84
2023-02-05T07:00:58.921Z,101187.06
2023-02-05T07:03:27.408Z,101194.03
2023-02-05T07:05:55.898Z,101205.56
2023-02-05T07:08:24.397Z,101217.91
2023-02-05T07:10:54.192Z,101215.91
2023-02-05T07:13:22.594Z,101217.59
2023-02-05T07:15:51.086Z,101215.56
2023-02-05T07:18:19.660Z,101213.56
2023-02-05T07:20:48.288Z,101219.47
2023-02-05T07:23:16.850Z,101211.22
2023-02-05T07:25:46.329Z,101210.03
2023-02-05T07:28:16.182Z,101211.88
2023-02-05T07:30:44.813Z,101212.25
2023-02-05T07:33:13.262Z,101209.19
2023-02-05T07:35:41.787Z,101209.56
2023-02-05T07:38:10.983Z,101206.53
2023-02-05T07:40:39.369Z,101203.31
2023-02-05T07:43:07.859Z,101201.13
2023-02-05T07:45:37.687Z,101202.50
2023-02-05T07:48:06.516Z,101200.97
2023-02-05T07:50:35.011Z,101196.91
2023-02-05T07:53:03.405Z,101191.69
2023-02-05T07:55:32.020Z,101209.50
2023-02-05T07:58:00.542Z,101209.00
2023-02-05T08:00:28.969Z,101223.06
2023-02-05T08:02:58.732Z,101221.69
2023-02-05T08:05:27.253Z,101229.50
2023-02-05T08:07:55.791Z,101220.03
2023-02-05T08:10:24.219Z,101220.56
2023-02-05T08:12:52.736Z,101227.00
2023-02-05T08:15:21.219Z,101222.75
2023-02-05T08:17:49.761Z,101227.69
2023-02-05T08:20:20.134Z,101233.44
2023-02-05T08:22:48.765Z,101216.66
2023-02-05T08:25:17.430Z,101224.47
2023-02-05T08:27:46.400Z,101217.69
2023-02-05T08:30:18.015Z,101217.84
2023-02-05T08:32:49.923Z,101216.16
2023-02-05T08:35:20.149Z,101211.91
2023-02-05T08:37:49.638Z,101215.97
2023-02-05T08:40:18.476Z,101221.91
2023-02-05T08:42:48.683Z,101229.88
2023-02-05T08:45:17.320Z,101229.34
2023-02-05T08:47:45.912Z,101220.34
2023-02-05T08:50:15.579Z,101221.34
2023-02-05T08:52:45.403Z,101216.25
2023-02-05T08:55:14.367Z,101220.81
2023-02-05T08:57:42.973Z,101209.06
2023-02-05T09:00:13.674Z,101210.06
2023-02-05T09:02:43.369Z,101214.81
2023-02-05T09:05:12.175Z,101213.75
2023-02-05T09:07:41.579Z,101211.00
2023-02-05T09:10:14.080Z,101205.22
2023-02-05T09:12:42.545Z,101206.53
2023-02-05T09:15:11.786Z,101191.75
2023-02-05T09:17:40.217Z,101210.72
2023-02-05T09:20:10.104Z,101203.25
2023-02-05T09:22:38.693Z,101210.19
2023-02-05T09:25:08.467Z,101218.00
2023-02-05T09:27:38.310Z,101207.97
2023-02-05T09:30:07.896Z,101214.94
2023-02-05T09:32:36.478Z,101205.63
2023-02-05T09:35:05.288Z,101202.34
2023-02-05T09:37:33.769Z,101198.06
2023-02-05T09:43:04.466Z,101204.19
2023-02-05T09:45:46.799Z,101200.06
2023-02-05T09:48:50.541Z,101196.81
2023-02-05T09:51:23.710Z,101201.88
2023-02-05T09:54:11.701Z,101191.84
2023-02-05T09:56:40.261Z,101187.56
2023-02-05T09:59:17.202Z,101175.28
2023-02-05T10:01:50.966Z,101176.44
2023-02-05T10:04:20.500Z,101171.47
2023-02-05T10:07:21.320Z,101174.19
2023-02-05T10:10:25.251Z,101169.94
2023-02-05T10:13:34.510Z,101173.06
2023-02-05T10:16:53.282Z,101161.69
2023-02-05T10:20:00.270Z,101158.94
2023-02-05T10:22:38.697Z,101159.44
2023-02-05T10:26:03.531Z,101158.06
2023-02-05T10:29:09.306Z,101155.44
2023-02-05T10:31:44.848Z,101147.03
2023-02-05T10:34:31.604Z,101145.81
2023-02-05T10:37:02.639Z,101146.16
2023-02-05T10:39:32.246Z,101126.91
2023-02-05T10:42:06.418Z,101131.31
2023-02-05T10:44:39.832Z,101124.06
2023-02-05T10:47:15.318Z,101130.38
2023-02-05T10:49:51.849Z,101134.97
2023-02-05T10:52:20.338Z,101140.44
2023-02-05T10:54:49.224Z,101145.09
2023-02-05T10:57:21.069Z,101150.00
2023-02-05T10:59:56.039Z,101135.91
2023-02-05T11:02:32.597Z,101118.16
2023-02-05T11:05:07.581Z,101115.44
2023-02-05T11:07:40.608Z,101105.53
2023-02-05T11:10:18.483Z,101104.69
2023-02-05T11:12:50.130Z,101095.06
2023-02-05T11:15:25.773Z,101097.03
2023-02-05T11:18:00.221Z,101091.41
2023-02-05T11:20:34.754Z,101089.19
2023-02-05T11:23:25.845Z,101095.47
2023-02-05T11:25:57.297Z,101091.03
2023-02-05T11:28:29.930Z,101086.06
2023-02-05T11:30:59.318Z,101073.91
2023-02-05T11:33:32.540Z,101081.50
2023-02-05T11:36:04.330Z,101086.56
2023-02-05T11:38:43.471Z,101066.94
2023-02-05T11:41:14.676Z,101079.81
2023-02-05T11:43:51.013Z,101074.47
2023-02-05T11:46:22.941Z,101064.75
2023-02-05T11:48:59.665Z,101072.25
2023-02-05T11:51:44.782Z,101067.03
2023-02-05T11:54:23.212Z,101067.56
2023-02-05T11:57:28.330Z,101061.03
2023-02-05T11:59:59.864Z,101062.06
2023-02-05T12:02:34.431Z,101053.22
2023-02-05T12:05:19.907Z,101055.78
2023-02-05T12:07:55.360Z,101062.97
2023-02-05T12:10:33.819Z,101055.38
2023-02-05T12:13:18.508Z,101047.09
2023-02-05T12:15:57.142Z,101032.25
2023-02-05T12:18:44.104Z,101034.91
2023-02-05T12:21:26.813Z,101028.16
2023-02-05T12:24:31.566Z,101034.19
2023-02-05T12:27:12.544Z,101023.81
2023-02-05T12:30:02.324Z,101018.81
2023-02-05T12:32:45.225Z,101017.94
2023-02-05T12:35:42.974Z,101033.88
2023-02-05T12:38:32.398Z,101026.81
2023-02-05T12:41:21.829Z,101040.44
2023-02-05T12:43:54.355Z,101053.09
2023-02-05T12:47:01.873Z,101056.34
2023-02-05T12:50:01.540Z,101056.25
2023-02-05T12:52:59.359Z,101059.41
2023-02-05T12:55:52.599Z,101053.63
2023-02-05T12:58:23.609Z,101063.38
2023-02-05T13:00:55.947Z,101060.41
2023-02-05T13:03:31.868Z,101060.78
2023-02-05T13:06:05.098Z,101051.88
2023-02-05T13:08:43.732Z,101054.13
2023-02-05T13:11:26.820Z,101056.41
2023-02-05T13:14:05.018Z,101053.19
2023-02-05T13:16:42.871Z,101057.53
2023-02-05T13:19:30.014Z,101064.16
2023-02-05T13:22:20.673Z,101060.91
2023-02-05T13:25:11.602Z,101077.44
2023-02-05T13:28:04.111Z,101075.88
2023-02-05T13:30:39.788Z,101064.44
2023-02-05T13:33:10.441Z,101068.78
2023-02-05T13:35:50.398Z,101080.09
2023-02-05T13:38:48.024Z,101078.41
2023-02-05T13:41:50.194Z,101072.69
2023-02-05T13:44:48.028Z,101068.41
2023-02-05T13:48:01.193Z,101071.94
2023-02-05T13:51:21.134Z,101066.59
2023-02-05T13:54:09.521Z,101075.19
2023-02-05T13:56:59.590Z,101073.97
2023-02-05T13:59:37.944Z,101075.91
2023-02-05T14:02:35.140Z,101058.47
2023-02-05T14:05:06.058Z,101074.00
2023-02-05T14:07:45.146Z,101067.72
2023-02-05T14:10:30.141Z,101063.69
2023-02-05T14:13:19.199Z,101068.50
2023-02-05T14:15:51.107Z,101069.25
2023-02-05T14:18:51.711Z,101064.97
2023-02-05T14:22:12.055Z,101065.88
2023-02-05T14:24:48.277Z,101062.81
2023-02-05T14:27:57.534Z,101072.50
2023-02-05T14:30:47.438Z,101067.00
2023-02-05T14:33:40.790Z,101074.44
2023-02-05T14:36:40.530Z,101078.50
2023-02-05T14:39:26.945Z,101076.06
2023-02-05T14:42:00.004Z,101073.44
2023-02-05T14:44:33.019Z,101077.28
2023-02-05T14:47:10.937Z,101077.22
2023-02-05T14:49:47.693Z,101082.56
2023-02-05T14:52:33.124Z,101081.63
2023-02-05T14:55:08.041Z,101086.78
2023-02-05T14:57:47.825Z,101097.22
2023-02-05T15:00:35.743Z,101092.69
2023-02-05T15:03:32.060Z,101089.19
2023-02-05T15:06:11.246Z,101089.75
2023-02-05T15:08:57.172Z,101090.97
2023-02-05T15:11:38.661Z,101087.59
2023-02-05T15:14:53.357Z,101092.19
2023-02-05T15:17:53.787Z,101101.00
2023-02-05T15:20:36.371Z,101095.75
2023-02-05T15:23:37.255Z,101092.91
2023-02-05T15:26:10.802Z,101099.94
2023-02-05T15:28:48.330Z,101102.72
2023-02-05T15:31:32.164Z,101099.41
2023-02-05T15:34:22.677Z,101094.22
2023-02-05T15:36:59.384Z,101096.28
2023-02-05T15:39:38.083Z,101096.53
2023-02-05T15:42:08.164Z,101101.03
2023-02-05T15:44:44.159Z,101101.06
2023-02-05T15:47:21.314Z,101099.41
2023-02-05T15:49:53.509Z,101102.00
2023-02-05T15:52:35.852Z,101102.53
2023-02-05T15:55:17.795Z,101105.13
2023-02-05T15:57:49.098Z,101100.38
2023-02-05T16:00:25.592Z,101109.25
2023-02-05T16:03:02.161Z,101101.78
2023-02-05T16:05:33.868Z,101106.09
2023-02-05T16:08:05.995Z,101118.34
2023-02-05T16:10:37.498Z,101117.16
2023-02-05T16:13:16.354Z,101115.97
2023-02-05T16:15:55.012Z,101111.91
2023-02-05T16:18:41.089Z,101118.06
2023-02-05T16:21:23.017Z,101126.34
2023-02-05T16:23:58.073Z,101120.63
2023-02-05T16:26:33.412Z,101128.25
2023-02-05T16:29:11.679Z,101120.47
2023-02-05T16:31:50.578Z,101129.97
2023-02-05T16:34:23.119Z,101131.16
2023-02-05T16:36:55.182Z,101135.06
2023-02-05T16:39:30.597Z,101143.56
2023-02-05T16:42:08.063Z,101137.47
2023-02-05T16:44:40.714Z,101142.38
2023-02-05T16:47:23.956Z,101140.84
2023-02-05T16:49:54.525Z,101131.19
2023-02-05T16:52:34.219Z,101132.38
2023-02-05T16:55:31.431Z,101122.72
2023-02-05T16:58:08.963Z,101130.34
2023-02-05T17:00:39.034Z,101135.97
2023-02-05T17:03:19.810Z,101135.28
2023-02-05T17:05:58.855Z,101129.16
2023-02-05T17:08:33.641Z,101136.47
2023-02-05T17:11:06.901Z,101130.38
2023-02-05T17:13:43.464Z,101136.97
2023-02-05T17:16:29.500Z,101139.84
2023-02-05T17:19:02.115Z,101146.31
2023-02-05T17:21:33.839Z,101151.06
2023-02-05T17:24:09.771Z,101143.06
2023-02-05T17:26:43.571Z,101155.97
2023-02-05T17:29:18.960Z,101144.63
2023-02-05T17:31:52.411Z,101139.19
2023-02-05T17:34:22.472Z,101145.78
2023-02-05T17:36:52.635Z,101143.22
2023-02-05T17:39:22.585Z,101140.69
2023-02-05T17:42:15.451Z,101147.16
2023-02-05T17:44:46.975Z,101156.63
2023-02-05T17:47:17.623Z,101157.66
2023-02-05T17:49:47.931Z,101151.56
2023-02-05T17:52:18.086Z,101147.13
2023-02-05T17:54:48.562Z,101152.75
2023-02-05T17:57:20.660Z,101151.22
2023-02-05T17:59:55.910Z,101155.97
2023-02-05T18:02:26.254Z,101163.41
2023-02-05T18:04:58.369Z,101160.00
2023-02-05T18:07:35.643Z,101158.31
2023-02-05T18:10:08.016Z,101163.06
2023-02-05T18:12:38.493Z,101160.69
2023-02-05T18:15:16.338Z,101154.56
2023-02-05T18:17:46.884Z,101155.56
2023-02-05T18:20:20.186Z,101158.47
2023-02-05T18:22:51.395Z,101148.63
2023-02-05T18:25:22.970Z,101155.25
2023-02-05T18:27:56.788Z,101160.69
2023-02-05T18:30:28.447Z,101151.84
2023-02-05T18:32:59.582Z,101167.28
2023-02-05T18:35:29.810Z,101158.47
2023-02-05T18:38:00.540Z,101161.19
2023-02-05T18:40:29.732Z,101155.03
2023-02-05T18:42:59.730Z,101163.34
2023-02-05T18:45:31.211Z,101161.63
2023-02-05T18:48:04.339Z,101152.69
2023-02-05T18:50:34.170Z,101169.78
2023-02-05T18:53:04.346Z,101168.09
2023-02-05T18:55:35.993Z,101168.28
2023-02-05T18:58:06.502Z,101157.75
2023-02-05T19:00:40.624Z,101170.44
2023-02-05T19:03:10.905Z,101169.59
2023-02-05T19:05:40.890Z,101176.03
2023-02-05T19:08:10.924Z,101173.47
2023-02-05T19:10:41.062Z,101178.22
2023-02-05T19:13:10.819Z,101173.66
2023-02-05T19:15:42.895Z,101171.13
2023-02-05T19:18:15.289Z,101175.69
2023-02-05T19:20:46.197Z,101179.25
2023-02-05T19:23:16.298Z,101178.41
2023-02-05T19:25:45.838Z,101184.81
2023-02-05T19:28:15.962Z,101188.38
2023-02-05T19:30:47.917Z,101192.13
2023-02-05T19:33:20.866Z,101200.25
2023-02-05T19:35:52.455Z,101205.81
2023-02-05T19:38:22.850Z,101201.41
2023-02-05T19:40:54.730Z,101210.53
2023-02-05T19:43:27.233Z,101212.56
2023-02-05T19:46:03.018Z,101210.19
2023-02-05T19:48:34.350Z,101211.03
2023-02-05T19:51:08.428Z,101206.97
2023-02-05T19:53:40.873Z,101208.13
2023-02-05T19:56:14.231Z,101219.97
2023-02-05T19:58:48.551Z,101217.59
2023-02-05T20:01:25.694Z,101216.06
2023-02-05T20:03:58.100Z,101212.81
2023-02-05T20:06:32.122Z,101216.69
2023-02-05T20:09:06.777Z,101224.31
2023-02-05T20:11:37.384Z,101224.63
2023-02-05T20:14:08.353Z,101228.50
2023-02-05T20:16:42.025Z,101234.94
2023-02-05T20:19:14.744Z,101230.53
2023-02-05T20:21:47.122Z,101228.84
2023-02-05T20:24:18.249Z,101233.56
2023-02-05T20:26:49.857Z,101226.63
2023-02-05T20:29:37.509Z,101232.16
2023-02-05T20:32:09.675Z,101228.25
2023-02-05T20:34:45.159Z,101230.28
2023-02-05T20:37:16.915Z,101226.03
2023-02-05T20:39:48.729Z,101237.19
2023-02-05T20:42:20.746Z,101238.34
2023-02-05T20:44:51.557Z,101244.06
2023-02-05T20:47:25.626Z,101240.66
2023-02-05T20:49:56.946Z,101239.13
2023-02-05T20:52:28.046Z,101257.25
2023-02-05T20:54:58.766Z,101260.25
2023-02-05T20:57:28.464Z,101250.44
2023-02-05T20:59:58.302Z,101252.44
2023-02-05T21:02:30.680Z,101250.75
2023-02-05T21:05:01.125Z,101250.91
2023-02-05T21:07:30.878Z,101249.34
2023-02-05T21:10:02.446Z,101251.25
2023-02-05T21:12:32.961Z,101263.22
2023-02-05T21:15:02.380Z,101277.91
2023-02-05T21:17:34.338Z,101290.75
2023-02-05T21:20:04.815Z,101296.31
2023-02-05T21:22:34.064Z,101297.63
2023-02-05T21:25:02.632Z,101305.06
2023-02-05T21:27:31.442Z,101299.81
2023-02-05T21:30:01.007Z,101308.22
2023-02-05T21:32:33.206Z,101322.75
2023-02-05T21:35:02.106Z,101322.91
2023-02-05T21:37:31.402Z,101330.16
2023-02-05T21:40:08.822Z,101328.47
2023-02-05T21:42:37.992Z,101319.81
2023-02-05T21:45:08.298Z,101325.22
2023-02-05T21:47:38.373Z,101326.53
2023-02-05T21:50:09.168Z,101329.41
2023-02-05T21:52:37.662Z,101343.06
2023-02-05T21:55:06.873Z,101341.69
2023-02-05T21:57:35.322Z,101349.94
2023-02-05T22:00:04.553Z,101347.38
2023-02-05T22:02:32.965Z,101344.84
2023-02-05T22:05:02.801Z,101354.97
2023-02-05T22:07:31.229Z,101365.09
2023-02-05T22:09:59.668Z,101366.25
2023-02-05T22:12:28.077Z,101375.34
2023-02-05T22:14:56.615Z,101367.56
2023-02-05T22:17:25.001Z,101378.66
2023-02-05T22:19:53.387Z,101373.41
2023-02-05T22:22:23.263Z,101381.66
2023-02-05T22:24:51.595Z,101386.38
2023-02-05T22:27:20.034Z,101378.41
2023-02-05T22:29:49.927Z,101384.97
2023-02-05T22:32:18.376Z,101389.53
2023-02-05T22:34:46.756Z,101395.09
2023-02-05T22:37:15.217Z,101406.88
2023-02-05T22:39:45.366Z,101407.03
2023-02-05T22:42:13.802Z,101397.38
2023-02-05T22:44:42.216Z,101401.06
2023-02-05T22:47:10.866Z,101401.22
2023-02-05T22:49:39.555Z,101403.22
2023-02-05T22:52:07.947Z,101409.63
2023-02-05T22:54:36.320Z,101400.81
2023-02-05T22:57:06.129Z,101409.78
2023-02-05T22:59:34.518Z,101407.38
2023-02-05T23:02:03.059Z,101411.91
2023-02-05T23:04:31.471Z,101408.50
2023-02-05T23:06:59.999Z,101407.69
2023-02-05T23:09:28.493Z,101405.97
2023-02-05T23:11:57.222Z,101420.63
2023-02-05T23:14:27.056Z,101407.28
2023-02-05T23:16:56.704Z,101414.69
2023-02-05T23:19:25.161Z,101425.78
2023-02-05T23:21:53.729Z,101413.41
2023-02-05T23:24:22.297Z,101418.13
2023-02-05T23:26:53.511Z,101423.34
2023-02-05T23:29:22.194Z,101424.22
2023-02-05T23:31:52.000Z,101420.66
2023-02-05T23:34:20.416Z,101428.91
2023-02-05T23:36:48.854Z,101421.81
2023-02-05T23:39:17.307Z,101422.81
2023-02-05T23:41:45.785Z,101419.53
2023-02-05T23:44:17.830Z,101410.72
2023-02-05T23:46:48.422Z,101414.44
2023-02-05T23:49:21.857Z,101409.34
2023-02-05T23:51:51.158Z,101414.03
2023-02-05T23:54:20.285Z,101416.84
2023-02-05T23:56:48.820Z,101433.22
2023-02-05T23:59:18.244Z,101426.97
